Disney Magic — C6PT7 — position and weather

sailwx.info

Track history (hours):
 
Tides and Currents Weather Stations Pressure Air Temp Water Temp Dewpoint Dewpoint Depression Visibility Wind Speed Wind Dir Waves Ship Positions

Disney Magic

Last reported at 2020-Apr-02 19:05 UTC. Time now 2020-Apr-02 21:12 UTC.
Position N 28°20' W 080°28'.

Type: Passenger vessel. MMSI: 308516000.

Date/timePositionNaut miles runAvg speedWind from/ knotsBaromVisibWave heightAir tempDewpointWater temp
2020-Apr-02 19:05N 28°20' W 080°28'116.3
2020-Apr-02 19:01N 28°21' W 080°30'611.6
2020-Apr-02 18:29N 28°25' W 080°35'1 0.3
2020-Apr-02 16:00N 28°24' W 080°36'2 3.2 240 / 81017.4 24.0 8.424.8
2020-Apr-02 15:28N 28°25' W 080°38'0 0.0
2020-Apr-02 13:28N 28°25' W 080°38'0 0.0
2020-Apr-02 11:58N 28°25' W 080°38'0 0.0
2020-Apr-02 10:58N 28°25' W 080°38'0 0.0
2020-Apr-02 10:28N 28°25' W 080°38'0 0.0
2020-Apr-02 09:28N 28°25' W 080°38'0 0.0
2020-Apr-02 07:58N 28°25' W 080°38'0 0.0
2020-Apr-02 07:25N 28°25' W 080°38'0 0.0
2020-Apr-02 05:28N 28°25' W 080°38'0 0.0
2020-Apr-02 02:28N 28°25' W 080°38'0 0.0
2020-Apr-02 01:58N 28°25' W 080°38'0 0.0
2020-Apr-01 22:58N 28°25' W 080°38'0 0.0
2020-Apr-01 22:28N 28°25' W 080°38'0 0.0
2020-Apr-01 21:28N 28°25' W 080°38'0 0.0
2020-Apr-01 20:58N 28°25' W 080°38'0 0.0
2020-Apr-01 18:28N 28°25' W 080°38'0 0.0
2020-Apr-01 17:58N 28°25' W 080°38'0 0.0
2020-Apr-01 16:58N 28°25' W 080°38'0 0.0
2020-Apr-01 16:28N 28°25' W 080°38'0 0.0
2020-Apr-01 10:28N 28°25' W 080°38'0 0.0
2020-Apr-01 07:55N 28°25' W 080°38'0 0.0
2020-Apr-01 07:28N 28°25' W 080°38'0 0.0
2020-Mar-31 21:58N 28°25' W 080°38'0 0.0
2020-Mar-31 20:58N 28°25' W 080°38'0 0.0
2020-Mar-31 20:25N 28°25' W 080°38'0 0.0
2020-Mar-31 17:58N 28°25' W 080°38'0 0.0
2020-Mar-31 16:28N 28°25' W 080°38'0 0.0
2020-Mar-31 15:58N 28°25' W 080°38'1 0.3
2020-Mar-31 11:30N 28°25' W 080°36'4 8.9
2020-Mar-31 11:00N 28°23' W 080°32'10 1.3
2020-Mar-31 03:09N 28°15' W 080°25'10 4.4
2020-Mar-31 00:59N 28°22' W 080°32'0 0.0
2020-Mar-30 23:05N 28°22' W 080°32'0 0.0
2020-Mar-30 21:26N 28°22' W 080°32'0 0.0
2020-Mar-30 20:47N 28°22' W 080°32'0 0.0
2020-Mar-30 17:29N 28°22' W 080°32'0 0.0
2020-Mar-30 16:29N 28°22' W 080°32'0 0.0
2020-Mar-30 14:29N 28°22' W 080°32'0 0.0
2020-Mar-30 13:59N 28°22' W 080°32'0 0.0
2020-Mar-30 11:59N 28°22' W 080°32'0 0.0
2020-Mar-30 10:26N 28°22' W 080°32'0 0.0
2020-Mar-30 08:29N 28°22' W 080°32'0 0.0
2020-Mar-30 07:59N 28°22' W 080°32'0 0.0
2020-Mar-30 05:59N 28°22' W 080°32'0 0.0
2020-Mar-30 05:29N 28°22' W 080°32'0 0.0
2020-Mar-30 04:29N 28°22' W 080°32'0 0.0
2020-Mar-30 01:59N 28°22' W 080°32'0 0.0
2020-Mar-30 01:29N 28°22' W 080°32'0 0.0
2020-Mar-29 22:29N 28°22' W 080°32'0 0.0
2020-Mar-29 21:26N 28°22' W 080°32'0 0.0
2020-Mar-29 20:29N 28°22' W 080°32'0 0.0
2020-Mar-29 19:29N 28°22' W 080°32'0 0.0
2020-Mar-29 18:59N 28°22' W 080°32'0 0.0
2020-Mar-29 17:59N 28°22' W 080°32'0 0.0
2020-Mar-29 17:29N 28°22' W 080°32'0 0.0
2020-Mar-29 16:29N 28°22' W 080°32'0 0.0
2020-Mar-29 14:29N 28°22' W 080°32'0 0.0
2020-Mar-29 13:26N 28°22' W 080°32'0 0.0
2020-Mar-29 12:56N 28°22' W 080°32'0 0.0
2020-Mar-29 12:29N 28°22' W 080°32'0 0.0
2020-Mar-29 11:29N 28°22' W 080°32'0 0.0
2020-Mar-29 08:59N 28°22' W 080°32'0 0.0
2020-Mar-29 03:29N 28°22' W 080°32'0 0.1
2020-Mar-29 02:26N 28°22' W 080°32'0 0.0
2020-Mar-28 23:59N 28°22' W 080°32'0 0.0
2020-Mar-28 23:26N 28°22' W 080°32'5 2.0
2020-Mar-28 20:57N 28°25' W 080°37'1 0.7
2020-Mar-28 19:29N 28°25' W 080°38'0 0.0
2020-Mar-28 15:29N 28°25' W 080°38'0 0.0
2020-Mar-28 12:29N 28°25' W 080°38'0 0.0
2020-Mar-28 11:59N 28°25' W 080°38'0 0.0
2020-Mar-28 11:29N 28°25' W 080°38'19 6.2
2020-Mar-28 08:28N 28°16' W 080°19'14 6.5
2020-Mar-28 06:16N 28°12' W 080°03'2 7.2
2020-Mar-28 06:00N 28°11' W 080°04'25 6.6
2020-Mar-28 02:18N 28°20' W 080°30'2 7.4
2020-Mar-28 02:00N 28°22' W 080°32'0 0.3
2020-Mar-28 00:57N 28°22' W 080°32'0 0.0
2020-Mar-27 22:30N 28°22' W 080°32'0 0.0
2020-Mar-27 21:09N 28°22' W 080°32'0 0.0
2020-Mar-27 17:00N 28°22' W 080°32'0 0.0
2020-Mar-27 16:30N 28°22' W 080°32'0 0.0
2020-Mar-27 15:57N 28°22' W 080°32'0 0.0
2020-Mar-27 14:48N 28°22' W 080°32'0 0.0
2020-Mar-27 13:15N 28°22' W 080°32'0 0.0
2020-Mar-27 11:39N 28°22' W 080°32'0 0.0
2020-Mar-27 10:27N 28°22' W 080°32'0 0.0
2020-Mar-27 09:42N 28°22' W 080°32'0 0.0
2020-Mar-27 08:00N 28°22' W 080°32'0 0.0
2020-Mar-27 06:00N 28°22' W 080°32'0 0.0
2020-Mar-26 21:24N 28°22' W 080°32'0 0.2
2020-Mar-26 21:00N 28°22' W 080°32'0 0.0
2020-Mar-26 18:00N 28°22' W 080°32'0 0.0
2020-Mar-26 17:30N 28°22' W 080°32'0 0.0
2020-Mar-26 15:00N 28°22' W 080°32'0 0.0
2020-Mar-26 13:30N 28°22' W 080°32'0 0.0
2020-Mar-26 11:00N 28°22' W 080°32'0 0.0
2020-Mar-26 10:00N 28°22' W 080°32'0 0.0
2020-Mar-26 09:24N 28°22' W 080°32'0 0.0
2020-Mar-26 07:42N 28°22' W 080°32'0 0.1
2020-Mar-26 07:27N 28°22' W 080°32'0 0.0
2020-Mar-26 07:00N 28°22' W 080°32'0 0.1
2020-Mar-26 06:30N 28°22' W 080°32'0 0.0
2020-Mar-26 06:00N 28°22' W 080°32'0 0.0
2020-Mar-26 05:30N 28°22' W 080°32'0 0.0
2020-Mar-26 04:24N 28°22' W 080°32'0 0.1
2020-Mar-26 03:30N 28°22' W 080°32'0 0.0
2020-Mar-25 22:57N 28°22' W 080°32'0 0.0
2020-Mar-25 20:27N 28°22' W 080°32'0 0.0
2020-Mar-25 15:27N 28°22' W 080°32'0 0.0
2020-Mar-25 13:27N 28°22' W 080°32'0 0.0
2020-Mar-25 13:00N 28°22' W 080°32'0 0.0
2020-Mar-25 10:30N 28°22' W 080°32'0 0.0
2020-Mar-25 08:27N 28°22' W 080°32'0 0.0
2020-Mar-25 08:00N 28°22' W 080°32'0 0.0
2020-Mar-25 05:30N 28°22' W 080°32'18 4.4
2020-Mar-25 01:30N 28°13' W 080°14'5 6.5
2020-Mar-25 00:44N 28°13' W 080°09'25 7.6
2020-Mar-24 21:30N 28°24' W 080°34'4 2.3
2020-Mar-24 19:53N 28°25' W 080°38'0 0.0
2020-Mar-24 19:29N 28°25' W 080°38'0 0.0
2020-Mar-24 18:59N 28°25' W 080°38'0 0.0
2020-Mar-24 17:26N 28°25' W 080°38'0 0.0
2020-Mar-24 16:59N 28°25' W 080°38'0 0.0
2020-Mar-24 15:29N 28°25' W 080°38'0 0.0
2020-Mar-24 13:56N 28°25' W 080°38'0 0.0
2020-Mar-24 13:29N 28°25' W 080°38'0 0.0
2020-Mar-24 12:59N 28°25' W 080°38'6 2.0
2020-Mar-24 09:59N 28°22' W 080°32'0 0.0
2020-Mar-24 08:29N 28°22' W 080°32'0 0.0
2020-Mar-24 07:59N 28°22' W 080°32'0 0.0
2020-Mar-24 07:29N 28°22' W 080°32'0 0.0
2020-Mar-24 05:29N 28°22' W 080°32'0 0.0
2020-Mar-24 04:29N 28°22' W 080°32'0 0.0
2020-Mar-24 01:29N 28°22' W 080°32'0 0.0
2020-Mar-24 00:29N 28°22' W 080°32'0 0.0
2020-Mar-23 23:29N 28°22' W 080°32'  
Track history (hours):
 
Tides and Currents Weather Stations Pressure Air Temp Water Temp Dewpoint Dewpoint Depression Visibility Wind Speed Wind Dir Waves Ship Positions

Disney Magic

Last reported at 2020-Apr-02 19:05 UTC. Time now 2020-Apr-02 21:12 UTC.
Position N 28°20' W 080°28'.

Type: Passenger vessel. MMSI: 308516000.

Date/timePositionNaut miles runAvg speedWind from/ knotsBaromVisibWave heightAir tempDewpointWater temp
2020-Apr-02 19:05N 28°20' W 080°28'116.3
2020-Apr-02 19:01N 28°21' W 080°30'611.6
2020-Apr-02 18:29N 28°25' W 080°35'1 0.3
2020-Apr-02 16:00N 28°24' W 080°36'2 3.2 240 / 81017.4 24.0 8.424.8
2020-Apr-02 15:28N 28°25' W 080°38'0 0.0
2020-Apr-02 13:28N 28°25' W 080°38'0 0.0
2020-Apr-02 11:58N 28°25' W 080°38'0 0.0
2020-Apr-02 10:58N 28°25' W 080°38'0 0.0
2020-Apr-02 10:28N 28°25' W 080°38'0 0.0
2020-Apr-02 09:28N 28°25' W 080°38'0 0.0
2020-Apr-02 07:58N 28°25' W 080°38'0 0.0
2020-Apr-02 07:25N 28°25' W 080°38'0 0.0
2020-Apr-02 05:28N 28°25' W 080°38'0 0.0
2020-Apr-02 02:28N 28°25' W 080°38'0 0.0
2020-Apr-02 01:58N 28°25' W 080°38'0 0.0
2020-Apr-01 22:58N 28°25' W 080°38'0 0.0
2020-Apr-01 22:28N 28°25' W 080°38'0 0.0
2020-Apr-01 21:28N 28°25' W 080°38'0 0.0
2020-Apr-01 20:58N 28°25' W 080°38'0 0.0
2020-Apr-01 18:28N 28°25' W 080°38'0 0.0
2020-Apr-01 17:58N 28°25' W 080°38'0 0.0
2020-Apr-01 16:58N 28°25' W 080°38'0 0.0
2020-Apr-01 16:28N 28°25' W 080°38'0 0.0
2020-Apr-01 10:28N 28°25' W 080°38'0 0.0
2020-Apr-01 07:55N 28°25' W 080°38'0 0.0
2020-Apr-01 07:28N 28°25' W 080°38'0 0.0
2020-Mar-31 21:58N 28°25' W 080°38'0 0.0
2020-Mar-31 20:58N 28°25' W 080°38'0 0.0
2020-Mar-31 20:25N 28°25' W 080°38'0 0.0
2020-Mar-31 17:58N 28°25' W 080°38'0 0.0
2020-Mar-31 16:28N 28°25' W 080°38'0 0.0
2020-Mar-31 15:58N 28°25' W 080°38'1 0.3
2020-Mar-31 11:30N 28°25' W 080°36'4 8.9
2020-Mar-31 11:00N 28°23' W 080°32'10 1.3
2020-Mar-31 03:09N 28°15' W 080°25'10 4.4
2020-Mar-31 00:59N 28°22' W 080°32'0 0.0
2020-Mar-30 23:05N 28°22' W 080°32'0 0.0
2020-Mar-30 21:26N 28°22' W 080°32'0 0.0
2020-Mar-30 20:47N 28°22' W 080°32'0 0.0
2020-Mar-30 17:29N 28°22' W 080°32'0 0.0
2020-Mar-30 16:29N 28°22' W 080°32'0 0.0
2020-Mar-30 14:29N 28°22' W 080°32'0 0.0
2020-Mar-30 13:59N 28°22' W 080°32'0 0.0
2020-Mar-30 11:59N 28°22' W 080°32'0 0.0
2020-Mar-30 10:26N 28°22' W 080°32'0 0.0
2020-Mar-30 08:29N 28°22' W 080°32'0 0.0
2020-Mar-30 07:59N 28°22' W 080°32'0 0.0
2020-Mar-30 05:59N 28°22' W 080°32'0 0.0
2020-Mar-30 05:29N 28°22' W 080°32'0 0.0
2020-Mar-30 04:29N 28°22' W 080°32'0 0.0
2020-Mar-30 01:59N 28°22' W 080°32'0 0.0
2020-Mar-30 01:29N 28°22' W 080°32'0 0.0
2020-Mar-29 22:29N 28°22' W 080°32'0 0.0
2020-Mar-29 21:26N 28°22' W 080°32'0 0.0
2020-Mar-29 20:29N 28°22' W 080°32'0 0.0
2020-Mar-29 19:29N 28°22' W 080°32'0 0.0
2020-Mar-29 18:59N 28°22' W 080°32'0 0.0
2020-Mar-29 17:59N 28°22' W 080°32'0 0.0
2020-Mar-29 17:29N 28°22' W 080°32'0 0.0
2020-Mar-29 16:29N 28°22' W 080°32'0 0.0
2020-Mar-29 14:29N 28°22' W 080°32'0 0.0
2020-Mar-29 13:26N 28°22' W 080°32'0 0.0
2020-Mar-29 12:56N 28°22' W 080°32'0 0.0
2020-Mar-29 12:29N 28°22' W 080°32'0 0.0
2020-Mar-29 11:29N 28°22' W 080°32'0 0.0
2020-Mar-29 08:59N 28°22' W 080°32'0 0.0
2020-Mar-29 03:29N 28°22' W 080°32'0 0.1
2020-Mar-29 02:26N 28°22' W 080°32'0 0.0
2020-Mar-28 23:59N 28°22' W 080°32'0 0.0
2020-Mar-28 23:26N 28°22' W 080°32'5 2.0
2020-Mar-28 20:57N 28°25' W 080°37'1 0.7
2020-Mar-28 19:29N 28°25' W 080°38'0 0.0
2020-Mar-28 15:29N 28°25' W 080°38'0 0.0
2020-Mar-28 12:29N 28°25' W 080°38'0 0.0
2020-Mar-28 11:59N 28°25' W 080°38'0 0.0
2020-Mar-28 11:29N 28°25' W 080°38'19 6.2
2020-Mar-28 08:28N 28°16' W 080°19'14 6.5
2020-Mar-28 06:16N 28°12' W 080°03'2 7.2
2020-Mar-28 06:00N 28°11' W 080°04'25 6.6
2020-Mar-28 02:18N 28°20' W 080°30'2 7.4
2020-Mar-28 02:00N 28°22' W 080°32'0 0.3
2020-Mar-28 00:57N 28°22' W 080°32'0 0.0
2020-Mar-27 22:30N 28°22' W 080°32'0 0.0
2020-Mar-27 21:09N 28°22' W 080°32'0 0.0
2020-Mar-27 17:00N 28°22' W 080°32'0 0.0
2020-Mar-27 16:30N 28°22' W 080°32'0 0.0
2020-Mar-27 15:57N 28°22' W 080°32'0 0.0
2020-Mar-27 14:48N 28°22' W 080°32'0 0.0
2020-Mar-27 13:15N 28°22' W 080°32'0 0.0
2020-Mar-27 11:39N 28°22' W 080°32'0 0.0
2020-Mar-27 10:27N 28°22' W 080°32'0 0.0
2020-Mar-27 09:42N 28°22' W 080°32'0 0.0
2020-Mar-27 08:00N 28°22' W 080°32'0 0.0
2020-Mar-27 06:00N 28°22' W 080°32'0 0.0
2020-Mar-26 21:24N 28°22' W 080°32'0 0.2
2020-Mar-26 21:00N 28°22' W 080°32'0 0.0
2020-Mar-26 18:00N 28°22' W 080°32'0 0.0
2020-Mar-26 17:30N 28°22' W 080°32'0 0.0
2020-Mar-26 15:00N 28°22' W 080°32'0 0.0
2020-Mar-26 13:30N 28°22' W 080°32'0 0.0
2020-Mar-26 11:00N 28°22' W 080°32'0 0.0
2020-Mar-26 10:00N 28°22' W 080°32'0 0.0
2020-Mar-26 09:24N 28°22' W 080°32'0 0.0
2020-Mar-26 07:42N 28°22' W 080°32'0 0.1
2020-Mar-26 07:27N 28°22' W 080°32'0 0.0
2020-Mar-26 07:00N 28°22' W 080°32'0 0.1
2020-Mar-26 06:30N 28°22' W 080°32'0 0.0
2020-Mar-26 06:00N 28°22' W 080°32'0 0.0
2020-Mar-26 05:30N 28°22' W 080°32'0 0.0
2020-Mar-26 04:24N 28°22' W 080°32'0 0.1
2020-Mar-26 03:30N 28°22' W 080°32'0 0.0
2020-Mar-25 22:57N 28°22' W 080°32'0 0.0
2020-Mar-25 20:27N 28°22' W 080°32'0 0.0
2020-Mar-25 15:27N 28°22' W 080°32'0 0.0
2020-Mar-25 13:27N 28°22' W 080°32'0 0.0
2020-Mar-25 13:00N 28°22' W 080°32'0 0.0
2020-Mar-25 10:30N 28°22' W 080°32'0 0.0
2020-Mar-25 08:27N 28°22' W 080°32'0 0.0
2020-Mar-25 08:00N 28°22' W 080°32'0 0.0
2020-Mar-25 05:30N 28°22' W 080°32'18 4.4
2020-Mar-25 01:30N 28°13' W 080°14'5 6.5
2020-Mar-25 00:44N 28°13' W 080°09'25 7.6
2020-Mar-24 21:30N 28°24' W 080°34'4 2.3
2020-Mar-24 19:53N 28°25' W 080°38'0 0.0
2020-Mar-24 19:29N 28°25' W 080°38'0 0.0
2020-Mar-24 18:59N 28°25' W 080°38'0 0.0
2020-Mar-24 17:26N 28°25' W 080°38'0 0.0
2020-Mar-24 16:59N 28°25' W 080°38'0 0.0
2020-Mar-24 15:29N 28°25' W 080°38'0 0.0
2020-Mar-24 13:56N 28°25' W 080°38'0 0.0
2020-Mar-24 13:29N 28°25' W 080°38'0 0.0
2020-Mar-24 12:59N 28°25' W 080°38'6 2.0
2020-Mar-24 09:59N 28°22' W 080°32'0 0.0
2020-Mar-24 08:29N 28°22' W 080°32'0 0.0
2020-Mar-24 07:59N 28°22' W 080°32'0 0.0
2020-Mar-24 07:29N 28°22' W 080°32'0 0.0
2020-Mar-24 05:29N 28°22' W 080°32'0 0.0
2020-Mar-24 04:29N 28°22' W 080°32'0 0.0
2020-Mar-24 01:29N 28°22' W 080°32'0 0.0
2020-Mar-24 00:29N 28°22' W 080°32'0 0.0
2020-Mar-23 23:29N 28°22' W 080°32'  

Dump ship's entire track history